Luz De Mar — ECIJ — position and weather

sailwx.info

Track history (hours):
 
Tides and Currents Weather Stations Pressure Air Temp Water Temp Dewpoint Dewpoint Depression Visibility Wind Speed Wind Dir Waves Ship Positions

Luz De Mar

Last reported at 2017-May-22 20:55 UTC. Time now 2017-May-25 18:02 UTC.
Position N 36°08' W 005°26'.

Length 56 m; draft 6.7 m.

Type: SAR. MMSI: 224311000.

Date/timePositionNaut miles runAvg speedWind from/ knotsBaromVisibWave heightAir tempDewpointWater temp
2017-May-22 20:55N 36°08' W 005°26'  
2017-May-19 21:20N 36°09' W 005°26'310.4
2017-May-19 21:00N 36°06' W 005°24'611.7
2017-May-19 20:30N 36°01' W 005°28'713.0
2017-May-19 20:00N 35°59' W 005°36'4 0.7
2017-May-19 13:21N 35°57' W 005°32'411.5
2017-May-19 13:00N 35°56' W 005°27'713.3
2017-May-19 12:30N 35°54' W 005°19'1 1.3
2017-May-19 12:00N 35°54' W 005°19'0 0.0
2017-May-19 11:30N 35°54' W 005°19'0 0.0
2017-May-19 11:00N 35°54' W 005°19'0 0.0
2017-May-19 10:30N 35°54' W 005°19'0 0.0
2017-May-19 10:00N 35°54' W 005°19'0 0.0
2017-May-19 09:30N 35°54' W 005°19'0 0.0
2017-May-19 09:00N 35°54' W 005°19'0 0.0
2017-May-19 08:30N 35°54' W 005°19'0 0.0
2017-May-19 08:00N 35°54' W 005°19'0 0.0
2017-May-19 07:31N 35°54' W 005°19'0 0.0
2017-May-19 07:00N 35°54' W 005°19'0 0.0
2017-May-19 06:30N 35°54' W 005°19'0 0.0
2017-May-19 06:00N 35°54' W 005°19'0 0.0
2017-May-19 05:30N 35°54' W 005°19'0 0.0
2017-May-19 05:00N 35°54' W 005°19'0 0.0
2017-May-19 04:30N 35°54' W 005°19'0 0.0
2017-May-19 04:01N 35°54' W 005°19'0 0.0
2017-May-19 03:30N 35°54' W 005°19'0 0.0
2017-May-19 03:00N 35°54' W 005°19'0 0.0
2017-May-19 02:30N 35°54' W 005°19'0 0.0
2017-May-19 02:00N 35°54' W 005°19'0 0.0
2017-May-19 01:30N 35°54' W 005°19'0 0.0
2017-May-19 01:00N 35°54' W 005°19'0 0.0
2017-May-19 00:30N 35°54' W 005°19'0 0.0
2017-May-19 00:00N 35°54' W 005°19'0 0.0
2017-May-18 23:30N 35°54' W 005°19'0 0.0
2017-May-18 23:00N 35°54' W 005°19'0 0.0
2017-May-18 22:30N 35°54' W 005°19'0 0.0
2017-May-18 22:00N 35°54' W 005°19'0 0.0
2017-May-18 21:30N 35°54' W 005°19'0 0.0
2017-May-18 21:00N 35°54' W 005°19'0 0.0
2017-May-18 20:30N 35°54' W 005°19'0 0.0
2017-May-18 20:00N 35°54' W 005°19'0 0.0
2017-May-18 19:30N 35°54' W 005°19'0 0.0
2017-May-18 19:00N 35°54' W 005°19'0 0.0
2017-May-18 18:30N 35°54' W 005°19'0 0.0
2017-May-18 18:00N 35°54' W 005°19'0 0.0
2017-May-18 17:30N 35°54' W 005°19'0 0.0
2017-May-18 17:00N 35°54' W 005°19'0 0.0
2017-May-18 16:30N 35°54' W 005°19'0 0.0
2017-May-18 16:00N 35°54' W 005°19'0 0.0
2017-May-18 15:30N 35°54' W 005°19'0 0.0
2017-May-18 15:00N 35°54' W 005°19'0 0.0
2017-May-18 14:00N 35°54' W 005°19'0 0.0
2017-May-18 13:30N 35°54' W 005°19'0 0.0
2017-May-18 13:00N 35°54' W 005°19'0 0.0
2017-May-18 12:30N 35°54' W 005°19'0 0.0
2017-May-18 12:00N 35°54' W 005°19'0 0.0
2017-May-18 11:30N 35°54' W 005°19'0 0.1
2017-May-18 11:00N 35°54' W 005°19'2 3.9
2017-May-18 10:30N 35°55' W 005°20'0 0.0
2017-May-18 10:00N 35°55' W 005°20'0 0.0
2017-May-18 09:30N 35°55' W 005°20'1 3.0
2017-May-18 09:00N 35°56' W 005°18'1410.7
2017-May-18 07:43N 36°09' W 005°25'  
Track history (hours):
 
Tides and Currents Weather Stations Pressure Air Temp Water Temp Dewpoint Dewpoint Depression Visibility Wind Speed Wind Dir Waves Ship Positions

Luz De Mar

Last reported at 2017-May-22 20:55 UTC. Time now 2017-May-25 18:02 UTC.
Position N 36°08' W 005°26'.

Length 56 m; draft 6.7 m.

Type: SAR. MMSI: 224311000.

Date/timePositionNaut miles runAvg speedWind from/ knotsBaromVisibWave heightAir tempDewpointWater temp
2017-May-22 20:55N 36°08' W 005°26'  
2017-May-19 21:20N 36°09' W 005°26'310.4
2017-May-19 21:00N 36°06' W 005°24'611.7
2017-May-19 20:30N 36°01' W 005°28'713.0
2017-May-19 20:00N 35°59' W 005°36'4 0.7
2017-May-19 13:21N 35°57' W 005°32'411.5
2017-May-19 13:00N 35°56' W 005°27'713.3
2017-May-19 12:30N 35°54' W 005°19'1 1.3
2017-May-19 12:00N 35°54' W 005°19'0 0.0
2017-May-19 11:30N 35°54' W 005°19'0 0.0
2017-May-19 11:00N 35°54' W 005°19'0 0.0
2017-May-19 10:30N 35°54' W 005°19'0 0.0
2017-May-19 10:00N 35°54' W 005°19'0 0.0
2017-May-19 09:30N 35°54' W 005°19'0 0.0
2017-May-19 09:00N 35°54' W 005°19'0 0.0
2017-May-19 08:30N 35°54' W 005°19'0 0.0
2017-May-19 08:00N 35°54' W 005°19'0 0.0
2017-May-19 07:31N 35°54' W 005°19'0 0.0
2017-May-19 07:00N 35°54' W 005°19'0 0.0
2017-May-19 06:30N 35°54' W 005°19'0 0.0
2017-May-19 06:00N 35°54' W 005°19'0 0.0
2017-May-19 05:30N 35°54' W 005°19'0 0.0
2017-May-19 05:00N 35°54' W 005°19'0 0.0
2017-May-19 04:30N 35°54' W 005°19'0 0.0
2017-May-19 04:01N 35°54' W 005°19'0 0.0
2017-May-19 03:30N 35°54' W 005°19'0 0.0
2017-May-19 03:00N 35°54' W 005°19'0 0.0
2017-May-19 02:30N 35°54' W 005°19'0 0.0
2017-May-19 02:00N 35°54' W 005°19'0 0.0
2017-May-19 01:30N 35°54' W 005°19'0 0.0
2017-May-19 01:00N 35°54' W 005°19'0 0.0
2017-May-19 00:30N 35°54' W 005°19'0 0.0
2017-May-19 00:00N 35°54' W 005°19'0 0.0
2017-May-18 23:30N 35°54' W 005°19'0 0.0
2017-May-18 23:00N 35°54' W 005°19'0 0.0
2017-May-18 22:30N 35°54' W 005°19'0 0.0
2017-May-18 22:00N 35°54' W 005°19'0 0.0
2017-May-18 21:30N 35°54' W 005°19'0 0.0
2017-May-18 21:00N 35°54' W 005°19'0 0.0
2017-May-18 20:30N 35°54' W 005°19'0 0.0
2017-May-18 20:00N 35°54' W 005°19'0 0.0
2017-May-18 19:30N 35°54' W 005°19'0 0.0
2017-May-18 19:00N 35°54' W 005°19'0 0.0
2017-May-18 18:30N 35°54' W 005°19'0 0.0
2017-May-18 18:00N 35°54' W 005°19'0 0.0
2017-May-18 17:30N 35°54' W 005°19'0 0.0
2017-May-18 17:00N 35°54' W 005°19'0 0.0
2017-May-18 16:30N 35°54' W 005°19'0 0.0
2017-May-18 16:00N 35°54' W 005°19'0 0.0
2017-May-18 15:30N 35°54' W 005°19'0 0.0
2017-May-18 15:00N 35°54' W 005°19'0 0.0
2017-May-18 14:00N 35°54' W 005°19'0 0.0
2017-May-18 13:30N 35°54' W 005°19'0 0.0
2017-May-18 13:00N 35°54' W 005°19'0 0.0
2017-May-18 12:30N 35°54' W 005°19'0 0.0
2017-May-18 12:00N 35°54' W 005°19'0 0.0
2017-May-18 11:30N 35°54' W 005°19'0 0.1
2017-May-18 11:00N 35°54' W 005°19'2 3.9
2017-May-18 10:30N 35°55' W 005°20'0 0.0
2017-May-18 10:00N 35°55' W 005°20'0 0.0
2017-May-18 09:30N 35°55' W 005°20'1 3.0
2017-May-18 09:00N 35°56' W 005°18'1410.7
2017-May-18 07:43N 36°09' W 005°25'  

Dump ship's entire track history